Terminal Aerodrome Forecast
Issued by NWS

Home | Current Version | Previous Version | Text Only | Print | Product List | Glossary Off
Versions: 1 2 3 4 5 6 7 8 9 10 11 12 13 14 15 16 17 18 19 20 21 22

752
FTUS42 KMHX 151128
TAFOAJ
TAF
KOAJ 151128Z 1512/1612 23009KT P6SM SCT025 BKN090
     FM151400 24010G16KT P6SM BKN090
      TEMPO 1514/1517 BKN025
     FM151700 24010KT P6SM SCT090
      AMD LTD TO CLD VIS AND WIND=

USA.gov is the U.S. government's official web portal to all federal, state and local government web resources and services.